Time;durP1;ratioP1;P1;durP2;ratioP2;P2;SDS_P1;SDS_P2;PMS_P1;PMS_P2;Temp;Humidity;BMP_temperature;BMP_pressure;BME280_temperature;BME280_humidity;BME280_pressure;Samples;Min_cycle;Max_cycle;Signal;HPM_P1;HPM_P2
2022/06/16 00:00:43;;;;;;;;;;;22.70;99.90;;;;;;5100786;28;19962;-71
2022/06/16 00:03:09;;;;;;;;;;;22.70;99.90;;;;;;5099944;28;19912;-71
2022/06/16 00:05:35;;;;;;;;;;;22.70;99.90;;;;;;5104862;28;19908;-71
2022/06/16 00:08:02;;;;;;;;;;;22.80;99.90;;;;;;5103473;28;19908;-71
2022/06/16 00:10:28;;;;;;;;;;;22.70;99.90;;;;;;5104011;28;20013;-71
2022/06/16 00:12:53;;;;;;;;;;;22.70;99.90;;;;;;5101740;28;19994;-71
2022/06/16 00:15:22;;;;;;;;;;;22.70;99.90;;;;;;5105123;28;19914;-71
2022/06/16 02:04:20;;;;;;;;;;;21.70;99.90;;;;;;5112422;28;19914;-73
2022/06/16 02:06:51;;;;;;;;;;;21.70;99.90;;;;;;5112620;28;19919;-71
2022/06/16 02:09:19;;;;;;;;;;;21.60;99.90;;;;;;5113596;28;19907;-72
2022/06/16 02:11:46;;;;;;;;;;;21.60;99.90;;;;;;5103126;28;19904;-71
2022/06/16 02:14:14;;;;;;;;;;;21.50;99.90;;;;;;5092895;28;19904;-72
2022/06/16 02:16:40;;;;;;;;;;;21.50;99.90;;;;;;5089977;28;19998;-72
2022/06/16 02:19:09;;;;;;;;;;;21.50;99.90;;;;;;5106629;28;19915;-72
2022/06/16 02:21:42;;;;;;;;;;;21.50;99.90;;;;;;5111451;28;19903;-71
2022/06/16 02:24:10;;;;;;;;;;;21.50;99.90;;;;;;5111784;28;19904;-73
2022/06/16 02:26:37;;;;;;;;;;;21.50;99.90;;;;;;5111194;28;19910;-74
2022/06/16 02:29:19;;;;;;;;;;;21.50;99.90;;;;;;5091681;28;20362;-72
2022/06/16 02:31:47;;;;;;;;;;;21.50;99.90;;;;;;5091675;28;20490;-74
2022/06/16 02:34:26;;;;;;;;;;;21.50;99.90;;;;;;5100734;28;19918;-71
2022/06/16 02:37:01;;;;;;;;;;;21.40;99.90;;;;;;5108347;28;20335;-71
2022/06/16 02:39:27;;;;;;;;;;;21.50;99.90;;;;;;5107082;28;19991;-71
2022/06/16 02:42:14;;;;;;;;;;;21.50;99.90;;;;;;5107825;28;20399;-71
2022/06/16 02:44:45;;;;;;;;;;;21.50;99.90;;;;;;5106363;28;19908;-72
2022/06/16 02:47:44;;;;;;;;;;;21.50;99.90;;;;;;5105677;28;19931;-71
2022/06/16 02:50:11;;;;;;;;;;;21.60;99.90;;;;;;5100898;28;19919;-71
2022/06/16 02:52:38;;;;;;;;;;;21.60;99.90;;;;;;5101386;28;19950;-71
2022/06/16 02:55:14;;;;;;;;;;;21.40;99.90;;;;;;5104840;28;19945;-70
2022/06/16 02:57:43;;;;;;;;;;;21.40;99.90;;;;;;5106553;28;20369;-72
2022/06/16 03:00:12;;;;;;;;;;;21.40;99.90;;;;;;5100405;28;19916;-72
2022/06/16 03:02:39;;;;;;;;;;;21.40;99.90;;;;;;5105249;28;19911;-72
2022/06/16 03:05:09;;;;;;;;;;;21.40;99.90;;;;;;5098046;28;19908;-70
2022/06/16 03:07:35;;;;;;;;;;;21.40;99.90;;;;;;5086832;28;20499;-70
2022/06/16 03:10:03;;;;;;;;;;;21.40;99.90;;;;;;5109468;28;19907;-72
2022/06/16 03:12:32;;;;;;;;;;;21.40;99.90;;;;;;5091790;28;19941;-71
2022/06/16 03:14:57;;;;;;;;;;;21.50;99.90;;;;;;5095111;28;20628;-72
2022/06/16 03:17:24;;;;;;;;;;;21.40;99.90;;;;;;5108301;28;20057;-71
2022/06/16 03:19:50;;;;;;;;;;;21.30;99.90;;;;;;5106465;28;20019;-70
2022/06/16 03:22:18;;;;;;;;;;;21.30;99.90;;;;;;5100220;28;20453;-72
2022/06/16 03:24:44;;;;;;;;;;;21.30;99.90;;;;;;5105526;28;19907;-71
2022/06/16 03:27:09;;;;;;;;;;;21.30;99.90;;;;;;5104989;28;19908;-72
2022/06/16 03:29:35;;;;;;;;;;;21.40;99.90;;;;;;5110420;28;19904;-71
2022/06/16 03:32:02;;;;;;;;;;;21.50;99.90;;;;;;5106391;28;19911;-71
2022/06/16 03:34:27;;;;;;;;;;;21.60;99.90;;;;;;5101819;28;19918;-71
2022/06/16 03:36:53;;;;;;;;;;;21.60;99.90;;;;;;5105976;28;19908;-72
2022/06/16 03:39:19;;;;;;;;;;;21.50;99.90;;;;;;5105319;28;19940;-71
2022/06/16 03:41:44;;;;;;;;;;;21.50;99.90;;;;;;5103714;28;19914;-73
2022/06/16 03:44:10;;;;;;;;;;;21.50;99.90;;;;;;5105374;28;20268;-72
2022/06/16 03:46:36;;;;;;;;;;;21.50;99.90;;;;;;5106421;28;19915;-70
2022/06/16 03:49:02;;;;;;;;;;;21.60;99.90;;;;;;5104723;28;19908;-71
2022/06/16 03:51:28;;;;;;;;;;;21.70;99.90;;;;;;5100691;28;19939;-72
2022/06/16 03:53:54;;;;;;;;;;;21.80;99.90;;;;;;5099282;28;19947;-72
2022/06/16 03:56:20;;;;;;;;;;;21.80;99.90;;;;;;5101837;28;19922;-70
2022/06/16 03:58:45;;;;;;;;;;;21.90;99.90;;;;;;5102493;28;19962;-73
2022/06/16 04:01:11;;;;;;;;;;;21.90;99.90;;;;;;5104739;28;19907;-73
2022/06/16 04:06:21;;;;;;;;;;;21.90;99.90;;;;;;5097109;28;20032;-72
2022/06/16 04:08:46;;;;;;;;;;;21.80;99.90;;;;;;5102604;28;20358;-71
2022/06/16 04:11:27;;;;;;;;;;;21.80;99.90;;;;;;5109658;28;19912;-71
2022/06/16 04:13:54;;;;;;;;;;;21.80;99.90;;;;;;5110534;28;19980;-71
2022/06/16 04:16:20;;;;;;;;;;;22.00;99.90;;;;;;5112709;27;20434;-71
2022/06/16 04:18:46;;;;;;;;;;;22.00;99.90;;;;;;5107771;28;19918;-71
2022/06/16 04:21:12;;;;;;;;;;;22.10;99.90;;;;;;5106520;28;19908;-73
2022/06/16 04:23:38;;;;;;;;;;;22.00;99.90;;;;;;5110031;28;19911;-72
2022/06/16 04:26:04;;;;;;;;;;;22.00;99.90;;;;;;5105871;28;19915;-73
2022/06/16 04:28:30;;;;;;;;;;;22.00;99.90;;;;;;5104066;28;19954;-74
2022/06/16 04:30:55;;;;;;;;;;;22.00;99.90;;;;;;5112014;28;19908;-70
2022/06/16 04:33:21;;;;;;;;;;;22.10;99.90;;;;;;5109841;28;19916;-71
2022/06/16 04:35:46;;;;;;;;;;;22.20;99.90;;;;;;5107869;28;20289;-71
2022/06/16 04:38:12;;;;;;;;;;;22.30;99.90;;;;;;5106849;28;20433;-71
2022/06/16 04:40:38;;;;;;;;;;;22.40;99.90;;;;;;5112016;28;19907;-70
2022/06/16 04:43:04;;;;;;;;;;;22.60;99.90;;;;;;5111665;28;20372;-71
2022/06/16 04:45:29;;;;;;;;;;;22.80;99.90;;;;;;5107235;28;20325;-71
2022/06/16 04:47:55;;;;;;;;;;;22.90;99.90;;;;;;5105419;28;20277;-71
2022/06/16 04:50:21;;;;;;;;;;;22.90;99.90;;;;;;5105932;28;19916;-72
2022/06/16 04:52:47;;;;;;;;;;;23.00;99.90;;;;;;5102294;28;19990;-72
2022/06/16 04:55:12;;;;;;;;;;;23.00;99.90;;;;;;5109956;28;20438;-72
2022/06/16 04:57:38;;;;;;;;;;;23.10;99.90;;;;;;5102252;28;19908;-71
2022/06/16 05:00:04;;;;;;;;;;;23.10;99.90;;;;;;5109555;28;19903;-73
2022/06/16 05:02:30;;;;;;;;;;;23.10;99.90;;;;;;5096014;28;20082;-67
2022/06/16 05:04:56;;;;;;;;;;;23.10;99.90;;;;;;5107866;28;19978;-69
2022/06/16 05:07:22;;;;;;;;;;;23.10;99.90;;;;;;5109355;28;19918;-69
2022/06/16 05:09:47;;;;;;;;;;;23.20;99.90;;;;;;5105711;28;19908;-69
2022/06/16 05:12:13;;;;;;;;;;;23.40;99.90;;;;;;5108911;28;19916;-71
2022/06/16 05:14:39;;;;;;;;;;;23.40;99.90;;;;;;5108262;27;19912;-70
2022/06/16 05:17:04;;;;;;;;;;;23.50;99.90;;;;;;5106724;28;19908;-67
2022/06/16 05:19:31;;;;;;;;;;;23.40;99.90;;;;;;5109084;28;19918;-66
2022/06/16 05:21:58;;;;;;;;;;;23.70;99.90;;;;;;5106695;28;19965;-66
2022/06/16 05:24:24;;;;;;;;;;;23.90;99.90;;;;;;5105977;28;20376;-66
2022/06/16 05:26:49;;;;;;;;;;;24.10;99.90;;;;;;5109134;27;19990;-67
2022/06/16 05:29:15;;;;;;;;;;;24.20;99.90;;;;;;5111385;28;20356;-68
2022/06/16 05:31:40;;;;;;;;;;;24.30;99.90;;;;;;5108197;28;19911;-66
2022/06/16 05:34:06;;;;;;;;;;;24.40;99.90;;;;;;5104533;28;19939;-66
2022/06/16 05:36:35;;;;;;;;;;;24.60;99.90;;;;;;5104521;28;19931;-66
2022/06/16 05:39:04;;;;;;;;;;;24.70;99.90;;;;;;5109660;27;19919;-68
2022/06/16 05:41:29;;;;;;;;;;;24.80;99.90;;;;;;5109742;28;19908;-67
2022/06/16 05:43:55;;;;;;;;;;;24.80;99.90;;;;;;5107462;28;19908;-66
2022/06/16 05:46:27;;;;;;;;;;;24.60;99.90;;;;;;5108551;28;19916;-69
2022/06/16 05:49:00;;;;;;;;;;;24.60;99.90;;;;;;5106055;28;19939;-65
2022/06/16 05:51:31;;;;;;;;;;;24.50;99.90;;;;;;5107510;28;19931;-67
2022/06/16 05:53:58;;;;;;;;;;;24.30;99.90;;;;;;5111879;28;19907;-66
2022/06/16 05:56:24;;;;;;;;;;;24.30;99.90;;;;;;5108152;28;19908;-67
2022/06/16 05:58:50;;;;;;;;;;;24.40;99.90;;;;;;5106041;28;19918;-67
2022/06/16 06:01:16;;;;;;;;;;;24.60;99.90;;;;;;5108901;28;19908;-65
2022/06/16 06:03:42;;;;;;;;;;;24.80;99.90;;;;;;5106228;28;20372;-66
2022/06/16 06:06:08;;;;;;;;;;;24.90;99.90;;;;;;5110718;28;20028;-69
2022/06/16 06:16:58;;;;;;;;;;;24.80;99.90;;;;;;5114251;28;19976;-66
2022/06/16 06:19:23;;;;;;;;;;;24.90;99.90;;;;;;5114916;28;19918;-66
2022/06/16 06:22:03;;;;;;;;;;;25.00;99.90;;;;;;5113521;28;20298;-66
2022/06/16 06:24:30;;;;;;;;;;;25.20;99.90;;;;;;5113580;27;19907;-66
2022/06/16 06:26:57;;;;;;;;;;;25.20;99.90;;;;;;5110843;27;20265;-66
2022/06/16 06:29:23;;;;;;;;;;;25.00;99.90;;;;;;5096950;28;19907;-65
2022/06/16 06:31:48;;;;;;;;;;;25.00;99.90;;;;;;5091322;28;20365;-66
2022/06/16 06:34:14;;;;;;;;;;;25.00;99.90;;;;;;5100887;28;20040;-66
2022/06/16 06:36:39;;;;;;;;;;;25.00;99.90;;;;;;5113041;28;20261;-65
2022/06/16 06:39:05;;;;;;;;;;;24.90;99.90;;;;;;5113219;28;19919;-67
2022/06/16 06:41:30;;;;;;;;;;;24.70;99.90;;;;;;5110348;28;19904;-66
2022/06/16 06:43:57;;;;;;;;;;;24.50;99.90;;;;;;5109170;28;19919;-65
2022/06/16 06:46:23;;;;;;;;;;;24.40;99.90;;;;;;5110930;28;19914;-66
2022/06/16 06:48:49;;;;;;;;;;;24.50;99.90;;;;;;5110938;28;20289;-65
2022/06/16 06:51:14;;;;;;;;;;;24.50;99.90;;;;;;5110689;28;19920;-64
2022/06/16 06:53:40;;;;;;;;;;;24.40;99.90;;;;;;5108637;28;19908;-65
2022/06/16 06:56:06;;;;;;;;;;;24.40;99.90;;;;;;5110749;28;20342;-65
2022/06/16 06:58:32;;;;;;;;;;;24.40;99.90;;;;;;5108722;28;19918;-65
2022/06/16 07:01:00;;;;;;;;;;;24.40;99.90;;;;;;5105676;28;19907;-65
2022/06/16 07:03:25;;;;;;;;;;;24.40;99.90;;;;;;5100359;28;20323;-65
2022/06/16 07:05:51;;;;;;;;;;;24.40;99.90;;;;;;5111026;28;19906;-65
2022/06/16 07:08:17;;;;;;;;;;;24.40;99.90;;;;;;5112505;28;19957;-66
2022/06/16 07:10:42;;;;;;;;;;;24.40;99.90;;;;;;5108021;28;20396;-65
2022/06/16 07:13:08;;;;;;;;;;;24.40;99.90;;;;;;5106412;28;20061;-65
2022/06/16 07:15:34;;;;;;;;;;;24.40;99.90;;;;;;5106012;28;20067;-65
2022/06/16 07:18:00;;;;;;;;;;;24.50;99.90;;;;;;5104455;28;19915;-66
2022/06/16 07:20:26;;;;;;;;;;;24.50;99.90;;;;;;5113567;27;20020;-66
2022/06/16 07:22:52;;;;;;;;;;;24.60;99.90;;;;;;5101215;28;19939;-65
2022/06/16 07:25:19;;;;;;;;;;;24.70;99.90;;;;;;5108060;28;19939;-67
2022/06/16 07:27:44;;;;;;;;;;;24.80;99.90;;;;;;5109164;28;19982;-65
2022/06/16 07:30:14;;;;;;;;;;;24.90;99.90;;;;;;5106281;28;19950;-66
2022/06/16 07:32:40;;;;;;;;;;;25.00;99.90;;;;;;5107130;28;19942;-64
2022/06/16 07:35:06;;;;;;;;;;;25.00;99.90;;;;;;5101649;28;19912;-64
2022/06/16 07:37:32;;;;;;;;;;;25.10;99.90;;;;;;5111013;28;19958;-66
2022/06/16 07:39:58;;;;;;;;;;;25.20;99.90;;;;;;5106331;28;20202;-65
2022/06/16 07:42:23;;;;;;;;;;;25.40;99.90;;;;;;5096785;28;19990;-65
2022/06/16 07:44:49;;;;;;;;;;;25.40;99.90;;;;;;5107151;28;20418;-64
2022/06/16 07:47:14;;;;;;;;;;;25.40;99.90;;;;;;5113325;28;19907;-66
2022/06/16 07:49:40;;;;;;;;;;;25.40;99.90;;;;;;5112348;28;20522;-64
2022/06/16 07:52:06;;;;;;;;;;;25.50;99.90;;;;;;5109854;28;19911;-65
2022/06/16 07:54:31;;;;;;;;;;;25.50;99.90;;;;;;5115004;28;19908;-65
2022/06/16 07:56:57;;;;;;;;;;;25.60;99.90;;;;;;5111361;28;19904;-66
2022/06/16 07:59:23;;;;;;;;;;;25.60;99.90;;;;;;5112046;28;20041;-66
2022/06/16 08:01:49;;;;;;;;;;;25.70;99.90;;;;;;5113160;28;19907;-65
2022/06/16 08:04:15;;;;;;;;;;;25.70;99.90;;;;;;5112746;28;19926;-64
2022/06/16 08:06:41;;;;;;;;;;;25.80;99.90;;;;;;5110938;28;20417;-64
2022/06/16 08:09:08;;;;;;;;;;;25.90;99.90;;;;;;5106642;28;19993;-64
2022/06/16 08:14:17;;;;;;;;;;;25.90;99.90;;;;;;5106228;28;20471;-65
2022/06/16 08:16:43;;;;;;;;;;;25.90;99.90;;;;;;5104874;28;19998;-65
2022/06/16 08:19:09;;;;;;;;;;;25.90;99.90;;;;;;5109312;28;19912;-65
2022/06/16 08:21:35;;;;;;;;;;;25.90;99.90;;;;;;5099571;28;20283;-66
2022/06/16 08:24:01;;;;;;;;;;;25.80;99.90;;;;;;5113191;28;19911;-65
2022/06/16 08:26:26;;;;;;;;;;;25.70;99.90;;;;;;5106881;28;19914;-65
2022/06/16 08:28:52;;;;;;;;;;;25.80;99.90;;;;;;5112107;28;20292;-67
2022/06/16 08:31:20;;;;;;;;;;;25.80;99.90;;;;;;5112243;28;19954;-65
2022/06/16 08:33:46;;;;;;;;;;;25.60;99.90;;;;;;5114264;28;19912;-65
2022/06/16 08:36:12;;;;;;;;;;;25.50;99.90;;;;;;5107663;28;19911;-64
2022/06/16 08:38:38;;;;;;;;;;;25.30;99.90;;;;;;5108335;28;19912;-65
2022/06/16 08:41:15;;;;;;;;;;;25.30;99.90;;;;;;5106536;28;19908;-66
2022/06/16 08:43:48;;;;;;;;;;;25.30;99.90;;;;;;5114458;28;19903;-65
2022/06/16 08:46:15;;;;;;;;;;;25.30;99.90;;;;;;5112863;28;19973;-66
2022/06/16 08:48:46;;;;;;;;;;;25.50;99.90;;;;;;5110904;28;19914;-66
2022/06/16 08:51:20;;;;;;;;;;;25.60;99.90;;;;;;5112137;28;19910;-66
2022/06/16 08:53:52;;;;;;;;;;;25.40;99.90;;;;;;5113166;28;19950;-66
2022/06/16 08:56:37;;;;;;;;;;;25.30;99.90;;;;;;5106115;28;19908;-64
2022/06/16 08:59:12;;;;;;;;;;;25.50;99.90;;;;;;5111672;28;19935;-67
2022/06/16 09:01:38;;;;;;;;;;;25.70;99.90;;;;;;5109553;27;20426;-65
2022/06/16 09:04:09;;;;;;;;;;;25.80;99.90;;;;;;5112674;28;19960;-65
2022/06/16 09:06:37;;;;;;;;;;;25.90;99.90;;;;;;5113700;28;19904;-66
2022/06/16 09:09:06;;;;;;;;;;;25.80;99.90;;;;;;5115142;28;20517;-66
2022/06/16 09:11:44;;;;;;;;;;;25.90;99.90;;;;;;5109282;28;19916;-66
2022/06/16 09:17:47;;;;;;;;;;;26.30;99.90;;;;;;5113467;28;20036;-67
2022/06/16 09:20:16;;;;;;;;;;;26.60;99.90;;;;;;5103844;27;19939;-67
2022/06/16 09:23:00;;;;;;;;;;;26.90;99.90;;;;;;5110465;27;20266;-67
2022/06/16 09:25:40;;;;;;;;;;;27.00;99.90;;;;;;5108180;28;20006;-68
2022/06/16 09:28:28;;;;;;;;;;;27.20;99.90;;;;;;5106807;28;19908;-66
2022/06/16 09:30:55;;;;;;;;;;;27.20;99.90;;;;;;5112505;28;19907;-68
2022/06/16 09:33:27;;;;;;;;;;;26.90;99.90;;;;;;5113205;28;19946;-67
2022/06/16 09:35:58;;;;;;;;;;;26.90;99.90;;;;;;5112365;28;19908;-68
2022/06/16 09:38:24;;;;;;;;;;;26.90;99.90;;;;;;5111659;28;20233;-68
2022/06/16 09:40:52;;;;;;;;;;;27.00;99.90;;;;;;5112120;28;19912;-67
2022/06/16 09:43:37;;;;;;;;;;;27.30;99.90;;;;;;5111359;28;19922;-66
2022/06/16 09:46:21;;;;;;;;;;;27.60;99.90;;;;;;5111416;28;19981;-65
2022/06/16 09:48:49;;;;;;;;;;;27.60;99.90;;;;;;5107891;28;20427;-66
2022/06/16 09:51:15;;;;;;;;;;;27.50;99.90;;;;;;5111089;28;19942;-67
2022/06/16 09:54:00;;;;;;;;;;;27.30;99.90;;;;;;5108849;28;20327;-66
2022/06/16 09:56:29;;;;;;;;;;;27.30;99.90;;;;;;5108205;28;20285;-67
2022/06/16 09:59:01;;;;;;;;;;;27.40;99.90;;;;;;5106143;27;19912;-66
2022/06/16 10:01:28;;;;;;;;;;;27.20;99.90;;;;;;5107391;28;19926;-67
2022/06/16 10:04:00;;;;;;;;;;;27.20;99.90;;;;;;5112061;28;19962;-67
2022/06/16 10:06:35;;;;;;;;;;;27.30;99.90;;;;;;5111291;28;19903;-68
2022/06/16 10:09:00;;;;;;;;;;;27.20;99.90;;;;;;5110563;28;19914;-67
2022/06/16 10:11:26;;;;;;;;;;;27.00;99.90;;;;;;5110824;28;19998;-68
2022/06/16 10:13:56;;;;;;;;;;;27.00;99.90;;;;;;5109051;28;19908;-68
2022/06/16 10:16:38;;;;;;;;;;;26.70;99.90;;;;;;5112322;28;19907;-68
2022/06/16 10:19:06;;;;;;;;;;;26.60;99.90;;;;;;5104840;28;20041;-68
2022/06/16 10:21:33;;;;;;;;;;;26.60;99.90;;;;;;5110874;28;19945;-68
2022/06/16 10:23:59;;;;;;;;;;;26.70;99.90;;;;;;5112097;28;20289;-67
2022/06/16 10:26:25;;;;;;;;;;;26.80;99.90;;;;;;5112534;28;20501;-68
2022/06/16 10:29:06;;;;;;;;;;;26.90;99.90;;;;;;5109827;28;19908;-66
2022/06/16 10:31:36;;;;;;;;;;;26.80;99.90;;;;;;5111976;28;19904;-68
2022/06/16 10:34:02;;;;;;;;;;;27.00;99.90;;;;;;5111861;28;19934;-68
2022/06/16 10:36:29;;;;;;;;;;;27.00;99.90;;;;;;5110606;28;19904;-68
2022/06/16 10:39:14;;;;;;;;;;;27.00;99.90;;;;;;5108127;28;19964;-67
2022/06/16 10:41:41;;;;;;;;;;;27.00;99.90;;;;;;5109306;28;19903;-68
2022/06/16 10:44:11;;;;;;;;;;;27.00;99.90;;;;;;5104168;28;19912;-68
2022/06/16 10:46:44;;;;;;;;;;;27.00;99.90;;;;;;5112229;28;19907;-67
2022/06/16 10:49:15;;;;;;;;;;;27.20;99.90;;;;;;5110683;28;19908;-67
2022/06/16 10:51:48;;;;;;;;;;;27.50;99.90;;;;;;5111873;28;19910;-68
2022/06/16 10:54:25;;;;;;;;;;;27.40;99.90;;;;;;5112267;28;20002;-67
2022/06/16 10:57:02;;;;;;;;;;;27.30;99.90;;;;;;5112265;28;19908;-67
2022/06/16 10:59:28;;;;;;;;;;;27.00;99.90;;;;;;5110860;28;19911;-66
2022/06/16 11:01:56;;;;;;;;;;;26.80;99.90;;;;;;5111772;28;19981;-67
2022/06/16 11:04:36;;;;;;;;;;;26.90;99.90;;;;;;5110720;28;19908;-67
2022/06/16 11:07:02;;;;;;;;;;;27.00;99.90;;;;;;5111970;28;19907;-66
2022/06/16 11:09:29;;;;;;;;;;;27.20;99.90;;;;;;5109413;28;19903;-68
2022/06/16 11:12:00;;;;;;;;;;;27.40;99.90;;;;;;5109273;28;19911;-68
2022/06/16 11:14:28;;;;;;;;;;;27.70;99.90;;;;;;5107322;28;19911;-66
2022/06/16 11:16:55;;;;;;;;;;;28.00;99.90;;;;;;5111676;28;19942;-67
2022/06/16 11:19:34;;;;;;;;;;;28.20;99.90;;;;;;5109971;27;19973;-65
2022/06/16 11:22:03;;;;;;;;;;;28.20;99.90;;;;;;5107806;28;19907;-67
2022/06/16 11:24:30;;;;;;;;;;;28.20;99.90;;;;;;5111703;28;19904;-66
2022/06/16 11:27:09;;;;;;;;;;;28.20;99.90;;;;;;5110124;28;19914;-67
2022/06/16 11:29:35;;;;;;;;;;;28.20;99.90;;;;;;5110461;28;20325;-67
2022/06/16 11:32:04;;;;;;;;;;;28.20;99.90;;;;;;5111662;28;20069;-65
2022/06/16 11:34:30;;;;;;;;;;;28.10;99.90;;;;;;5111550;28;19912;-65
2022/06/16 11:37:02;;;;;;;;;;;27.90;99.90;;;;;;5113079;28;20352;-65
2022/06/16 11:39:43;;;;;;;;;;;27.60;99.90;;;;;;5116876;28;19907;-65
2022/06/16 11:42:14;;;;;;;;;;;27.10;99.90;;;;;;5117391;28;19925;-66
2022/06/16 11:44:45;;;;;;;;;;;27.00;99.90;;;;;;5114667;28;19907;-66
2022/06/16 11:47:30;;;;;;;;;;;26.90;99.90;;;;;;5114878;28;20387;-66
2022/06/16 11:49:55;;;;;;;;;;;26.90;99.90;;;;;;5114997;28;19904;-66
2022/06/16 11:52:27;;;;;;;;;;;26.70;99.90;;;;;;5109608;28;19947;-64
2022/06/16 11:54:52;;;;;;;;;;;26.50;99.90;;;;;;5109044;28;20131;-66
2022/06/16 11:57:21;;;;;;;;;;;26.30;99.90;;;;;;5108972;28;19907;-66
2022/06/16 12:00:05;;;;;;;;;;;26.40;99.90;;;;;;5110723;28;20391;-66
2022/06/16 12:02:43;;;;;;;;;;;26.40;99.90;;;;;;5109863;28;19911;-66
2022/06/16 12:05:11;;;;;;;;;;;26.50;99.90;;;;;;5103752;28;19908;-67
2022/06/16 12:07:56;;;;;;;;;;;26.60;99.90;;;;;;5104335;28;20002;-67
2022/06/16 12:10:36;;;;;;;;;;;26.80;99.90;;;;;;5110521;28;19911;-66
2022/06/16 12:13:25;;;;;;;;;;;27.00;99.90;;;;;;5103686;28;20016;-67
2022/06/16 12:16:00;;;;;;;;;;;27.10;99.90;;;;;;5109252;28;19914;-67
2022/06/16 12:18:28;;;;;;;;;;;27.30;99.90;;;;;;5097125;28;19912;-67
2022/06/16 12:21:09;;;;;;;;;;;27.20;99.90;;;;;;5108930;28;19915;-67
2022/06/16 12:23:41;;;;;;;;;;;27.10;99.90;;;;;;5109358;28;19904;-68
2022/06/16 12:26:11;;;;;;;;;;;26.90;99.90;;;;;;5105366;28;19961;-66
2022/06/16 12:28:50;;;;;;;;;;;26.80;99.90;;;;;;5106716;28;19911;-66
2022/06/16 12:31:18;;;;;;;;;;;26.90;99.90;;;;;;5107020;28;20366;-66
2022/06/16 12:33:53;;;;;;;;;;;26.90;99.90;;;;;;5113340;28;19911;-67
2022/06/16 12:36:25;;;;;;;;;;;26.90;99.90;;;;;;5105265;28;19908;-69
2022/06/16 12:38:56;;;;;;;;;;;27.40;99.90;;;;;;5109982;28;19954;-68
2022/06/16 12:41:26;;;;;;;;;;;27.30;99.90;;;;;;5114391;28;19908;-66
2022/06/16 12:44:01;;;;;;;;;;;27.10;99.90;;;;;;5114627;28;19911;-67
2022/06/16 12:46:38;;;;;;;;;;;27.10;99.90;;;;;;5112247;28;19959;-67
2022/06/16 12:49:06;;;;;;;;;;;27.20;99.90;;;;;;5109699;28;19973;-67
2022/06/16 12:51:35;;;;;;;;;;;27.20;99.90;;;;;;5114159;28;19904;-67
2022/06/16 12:54:04;;;;;;;;;;;27.40;99.90;;;;;;5106300;28;20040;-67
2022/06/16 12:56:34;;;;;;;;;;;27.40;99.90;;;;;;5104535;28;19908;-68
2022/06/16 12:59:19;;;;;;;;;;;27.50;99.90;;;;;;5106151;28;20002;-67
2022/06/16 13:01:48;;;;;;;;;;;27.40;99.90;;;;;;5109739;28;19965;-66
2022/06/16 13:04:22;;;;;;;;;;;27.30;99.90;;;;;;5108401;28;19918;-66
2022/06/16 13:06:48;;;;;;;;;;;27.10;99.90;;;;;;5116118;28;20371;-66
2022/06/16 13:09:14;;;;;;;;;;;27.20;99.90;;;;;;5112411;28;20441;-66
2022/06/16 13:11:54;;;;;;;;;;;27.10;99.90;;;;;;5120368;27;19918;-66
2022/06/16 13:14:32;;;;;;;;;;;27.10;99.90;;;;;;5115281;27;19933;-67
2022/06/16 13:17:03;;;;;;;;;;;27.10;99.90;;;;;;5107107;28;19908;-67
2022/06/16 13:19:33;;;;;;;;;;;27.10;99.90;;;;;;5110504;28;19914;-67
2022/06/16 13:22:02;;;;;;;;;;;27.30;99.90;;;;;;5112252;27;19911;-66
2022/06/16 13:24:33;;;;;;;;;;;27.50;99.90;;;;;;5113161;28;19912;-67
2022/06/16 13:27:09;;;;;;;;;;;27.60;99.90;;;;;;5113496;28;20566;-66
2022/06/16 13:29:58;;;;;;;;;;;27.80;99.90;;;;;;5104943;28;19995;-67
2022/06/16 13:32:35;;;;;;;;;;;27.90;99.90;;;;;;5106949;28;19914;-67
2022/06/16 13:35:21;;;;;;;;;;;28.00;99.90;;;;;;5112467;28;19965;-67
2022/06/16 13:37:48;;;;;;;;;;;28.10;99.90;;;;;;5112765;28;19948;-68
2022/06/16 13:40:13;;;;;;;;;;;27.90;99.90;;;;;;5112947;28;19907;-67
2022/06/16 13:42:43;;;;;;;;;;;27.90;99.90;;;;;;5111776;28;20045;-67
2022/06/16 13:45:12;;;;;;;;;;;28.10;99.90;;;;;;5111656;28;19904;-68
2022/06/16 13:47:45;;;;;;;;;;;28.00;99.90;;;;;;5109846;28;19972;-66
2022/06/16 13:50:17;;;;;;;;;;;28.00;99.90;;;;;;5108029;28;19908;-67
2022/06/16 13:52:44;;;;;;;;;;;28.00;99.90;;;;;;5112888;28;20206;-67
2022/06/16 13:55:22;;;;;;;;;;;27.60;99.90;;;;;;5111394;28;19904;-66
2022/06/16 13:58:05;;;;;;;;;;;27.40;99.90;;;;;;5119742;27;19960;-67
2022/06/16 14:00:32;;;;;;;;;;;27.40;99.90;;;;;;5117479;27;19995;-67
2022/06/16 14:03:00;;;;;;;;;;;27.50;99.90;;;;;;5102774;28;20340;-67
2022/06/16 14:05:28;;;;;;;;;;;27.60;99.90;;;;;;5108258;28;19914;-67
2022/06/16 14:07:57;;;;;;;;;;;27.60;99.90;;;;;;5110264;28;20380;-67
2022/06/16 14:10:23;;;;;;;;;;;27.70;99.90;;;;;;5111898;28;19908;-67
2022/06/16 14:12:58;;;;;;;;;;;27.70;99.90;;;;;;5111619;28;19903;-67
2022/06/16 14:15:44;;;;;;;;;;;27.90;99.90;;;;;;5112547;28;19904;-67
2022/06/16 14:18:13;;;;;;;;;;;27.90;99.90;;;;;;5110981;28;20007;-66
2022/06/16 14:20:39;;;;;;;;;;;27.70;99.90;;;;;;5109743;28;19904;-67
2022/06/16 14:23:13;;;;;;;;;;;27.70;99.90;;;;;;5103516;28;20333;-67
2022/06/16 14:25:42;;;;;;;;;;;27.90;99.90;;;;;;5112782;28;19911;-67
2022/06/16 14:28:09;;;;;;;;;;;28.00;99.90;;;;;;5112595;28;19910;-66
2022/06/16 14:30:58;;;;;;;;;;;28.10;99.90;;;;;;5112168;28;19904;-67
2022/06/16 14:33:26;;;;;;;;;;;27.80;99.90;;;;;;5088120;28;19943;-68
2022/06/16 14:35:55;;;;;;;;;;;27.80;99.90;;;;;;5108520;28;20682;-67
2022/06/16 14:38:27;;;;;;;;;;;27.60;99.90;;;;;;5109030;28;19915;-66
2022/06/16 14:41:01;;;;;;;;;;;27.20;99.90;;;;;;5112924;28;19938;-67
2022/06/16 14:43:49;;;;;;;;;;;27.00;99.90;;;;;;5111109;28;20338;-69
2022/06/16 14:46:21;;;;;;;;;;;26.90;99.90;;;;;;5112644;28;19939;-65
2022/06/16 14:48:48;;;;;;;;;;;26.70;99.90;;;;;;5108354;28;19947;-65
2022/06/16 14:51:16;;;;;;;;;;;26.70;99.90;;;;;;5114493;28;19935;-65
2022/06/16 14:53:46;;;;;;;;;;;26.80;99.90;;;;;;5113618;28;20369;-64
2022/06/16 14:56:14;;;;;;;;;;;26.80;99.90;;;;;;5109555;28;19907;-66
2022/06/16 14:58:42;;;;;;;;;;;26.80;99.90;;;;;;5115463;28;19908;-67
2022/06/16 15:01:08;;;;;;;;;;;26.90;99.90;;;;;;5115521;28;20357;-66
2022/06/16 15:03:34;;;;;;;;;;;27.10;99.90;;;;;;5105299;28;19908;-65
2022/06/16 15:06:04;;;;;;;;;;;27.00;99.90;;;;;;5113147;28;19908;-68
2022/06/16 15:08:30;;;;;;;;;;;27.20;99.90;;;;;;5110995;28;19927;-64
2022/06/16 15:10:59;;;;;;;;;;;27.40;99.90;;;;;;5107902;28;19947;-65
2022/06/16 15:13:25;;;;;;;;;;;27.60;99.90;;;;;;5111720;28;19908;-65
2022/06/16 15:15:58;;;;;;;;;;;27.70;99.90;;;;;;5105985;28;19907;-65
2022/06/16 15:18:27;;;;;;;;;;;27.70;99.90;;;;;;5098808;28;19919;-65
2022/06/16 15:20:54;;;;;;;;;;;27.90;99.90;;;;;;5110634;28;19943;-70
2022/06/16 15:23:21;;;;;;;;;;;28.20;99.90;;;;;;5116245;28;19907;-70
2022/06/16 15:25:52;;;;;;;;;;;28.20;99.90;;;;;;5115222;28;19957;-70
2022/06/16 15:28:18;;;;;;;;;;;28.20;99.90;;;;;;5108349;28;19908;-70
2022/06/16 15:30:44;;;;;;;;;;;28.30;99.90;;;;;;5108386;28;19926;-70
2022/06/16 15:36:08;;;;;;;;;;;28.60;99.90;;;;;;5110198;28;19914;-70
2022/06/16 15:38:34;;;;;;;;;;;28.70;99.90;;;;;;5111020;28;19918;-70
2022/06/16 15:41:00;;;;;;;;;;;28.70;99.90;;;;;;5109263;28;19911;-70
2022/06/16 15:43:28;;;;;;;;;;;28.50;99.90;;;;;;5108260;28;19968;-70
2022/06/16 15:45:58;;;;;;;;;;;28.50;99.90;;;;;;5110064;28;19945;-71
2022/06/16 15:48:26;;;;;;;;;;;28.70;99.90;;;;;;5094923;28;19919;-70
2022/06/16 15:50:52;;;;;;;;;;;28.80;99.90;;;;;;5103271;28;20037;-71
2022/06/16 15:53:19;;;;;;;;;;;28.80;99.90;;;;;;5111344;28;19941;-71
2022/06/16 15:55:46;;;;;;;;;;;29.00;99.90;;;;;;5111273;28;19904;-71
2022/06/16 15:58:14;;;;;;;;;;;29.10;99.90;;;;;;5109834;28;19908;-70
2022/06/16 16:00:41;;;;;;;;;;;29.20;99.90;;;;;;5109588;28;19904;-71
2022/06/16 16:03:09;;;;;;;;;;;29.00;99.90;;;;;;5098234;28;19966;-71
2022/06/16 16:05:36;;;;;;;;;;;28.90;99.90;;;;;;5105594;28;19908;-71
2022/06/16 16:08:05;;;;;;;;;;;29.20;99.90;;;;;;5113622;28;19978;-71
2022/06/16 16:10:31;;;;;;;;;;;29.20;99.90;;;;;;5115383;28;19910;-71
2022/06/16 16:13:02;;;;;;;;;;;28.90;99.90;;;;;;5115315;28;19998;-70
2022/06/16 16:15:29;;;;;;;;;;;28.70;99.90;;;;;;5112096;28;19908;-72
2022/06/16 16:17:56;;;;;;;;;;;28.40;99.90;;;;;;5114616;28;19904;-71
2022/06/16 16:20:24;;;;;;;;;;;28.30;99.90;;;;;;5109140;28;19919;-71
2022/06/16 16:22:55;;;;;;;;;;;28.10;99.90;;;;;;5113640;28;19943;-69
2022/06/16 16:25:25;;;;;;;;;;;28.00;99.90;;;;;;5113419;28;20285;-70
2022/06/16 16:27:51;;;;;;;;;;;28.00;99.90;;;;;;5114508;28;19964;-70
2022/06/16 16:30:17;;;;;;;;;;;28.00;99.90;;;;;;5112019;28;20346;-70
2022/06/16 16:32:42;;;;;;;;;;;28.00;99.90;;;;;;5112255;28;20069;-71
2022/06/16 16:35:11;;;;;;;;;;;27.90;99.90;;;;;;5106479;28;19946;-69